Latest Coastal Weather Observations for Frederick Reef

IDQ60701

Issued at 1:52 am EST Thursday 29 June 2017 (issued every 10 minutes, with the page automatically refreshed every 10 minutes)

About coastal observations | Map of coastal stations | Coastal observations for QLD | Marine services | Other Formats
Station Details ID: 200701 Name: FREDERICK REEF Lat: -20.94 Lon: 154.40 Height: 4.9 m
Data from the previous 72 hours. | See also: Recent months for locations in Queensland
Date/Time
EST
Temp
°C
Wind Pressure Rain since
9am
mm
Weather Cloud Vis
km
Sea
Height
m
Swell
Dir  Spd
kts
Gust
kts
hPa Trend Height
m
Period
s
Dir
29/01:30am 22.8 ESE 20 23 1019.9 - - - - - - - - -
29/01:00am 22.8 ESE 20 24 1020.0 - - - - - - - - -
29/12:30am 22.8 ESE 20 24 1020.5 - - - - - - - - -
29/12:00am 22.8 ESE 21 23 1020.5 - - - - - - - - -
 
Date/Time
EST
Temp
°C
Wind Pressure Rain since
9am
mm
Weather Cloud Vis
km
Sea
Height
m
Swell
Dir  Spd
kts
Gust
kts
hPa Trend Height
m
Period
s
Dir
28/11:30pm 22.6 ESE 21 25 1020.7 - - - - - - - - -
28/11:00pm 23.1 ESE 20 23 1020.9 - - - - - - - - -
28/10:30pm 23.2 ESE 20 23 1021.1 - - - - - - - - -
28/10:00pm 22.8 ESE 21 23 1021.3 - - - - - - - - -
28/09:30pm 22.7 ESE 21 23 1021.2 - - - - - - - - -
28/09:00pm 23.0 ESE 21 23 1021.3 - - - - - - - - -
28/08:30pm 23.0 ESE 21 23 1021.1 - - - - - - - - -
28/08:00pm 23.0 ESE 21 23 1020.9 - - - - - - - - -
28/07:30pm 22.8 ESE 22 24 1020.5 - - - - - - - - -
28/07:00pm 23.2 ESE 22 24 1020.3 - - - - - - - - -
28/06:30pm 23.1 ESE 22 24 1020.1 - - - - - - - - -
28/06:00pm 23.5 ESE 22 26 1019.7 - - - - - - - - -
28/05:30pm 22.9 ESE 22 25 1019.4 - - - - - - - - -
28/05:00pm 23.3 ESE 22 25 1019.3 - - - - - - - - -
28/04:30pm 23.1 ESE 22 24 1019.1 - - - - - - - - -
28/04:00pm 23.2 ESE 22 24 1018.9 - - - - - - - - -
28/03:30pm 23.1 ESE 22 24 1018.9 - - - - - - - - -
28/03:00pm 23.2 ESE 22 24 1018.8 - - - - - - - - -
28/02:30pm 23.3 ESE 21 24 1018.7 - - - - - - - - -
28/02:00pm 23.3 ESE 21 23 1018.7 - - - - - - - - -
28/01:30pm 23.5 ESE 19 21 1018.9 - - - - - - - - -
28/01:00pm 23.8 ESE 17 21 1018.9 - - - - - - - - -
28/12:30pm 23.1 E 18 21 1019.3 - - - - - - - - -
28/12:00pm 23.3 E 17 19 1019.6 - - - - - - - - -
28/11:30am 23.3 E 17 20 1020.2 - - - - - - - - -
28/11:00am 23.2 E 18 21 1020.5 - - - - - - - - -
28/10:30am 23.1 E 19 21 1020.8 - - - - - - - - -
28/10:00am 23.2 E 19 22 1021.0 - - - - - - - - -
28/09:30am 23.4 E 20 22 1021.3 - - - - - - - - -
28/09:00am 23.2 E 19 21 1021.4 - - - - - - - - -
28/08:30am 23.1 E 21 25 1021.3 - - - - - - - - -
28/08:00am 23.1 ESE 20 22 1021.3 - - - - - - - - -
28/07:30am 23.2 ESE 20 23 1020.7 - - - - - - - - -
28/07:00am 23.2 E 21 24 1020.5 - - - - - - - - -
28/06:30am 22.9 E 21 23 1020.4 - - - - - - - - -
28/06:00am 22.8 ESE 20 23 1020.3 - - - - - - - - -
28/05:30am 22.8 E 20 23 1020.0 - - - - - - - - -
28/05:00am 22.8 E 20 24 1019.9 - - - - - - - - -
28/04:30am 22.8 E 19 22 1019.7 - - - - - - - - -
28/04:00am 22.9 E 20 23 1019.6 - - - - - - - - -
28/03:30am 23.2 E 20 23 1019.7 - - - - - - - - -
28/03:00am 22.9 E 20 23 1019.9 - - - - - - - - -
28/02:30am 22.9 E 19 22 1020.2 - - - - - - - - -
28/02:00am 22.9 E 18 21 1020.1 - - - - - - - - -
28/01:30am 22.9 E 20 22 1020.3 - - - - - - - - -
28/01:00am 23.0 ESE 20 22 1020.6 - - - - - - - - -
28/12:30am 22.9 E 20 23 1020.8 - - - - - - - - -
28/12:00am 23.0 E 21 23 1020.9 - - - - - - - - -
 
Date/Time
EST
Temp
°C
Wind Pressure Rain since
9am
mm
Weather Cloud Vis
km
Sea
Height
m
Swell
Dir  Spd
kts
Gust
kts
hPa Trend Height
m
Period
s
Dir
27/11:30pm 23.0 E 22 25 1021.0 - - - - - - - - -
27/11:00pm 23.1 E 23 26 1021.0 - - - - - - - - -
27/10:30pm 23.0 ESE 23 25 1021.1 - - - - - - - - -
27/10:00pm 23.1 E 23 25 1021.0 - - - - - - - - -
27/09:30pm 23.2 ESE 23 25 1021.4 - - - - - - - - -
27/09:00pm 23.2 ESE 22 25 1021.5 - - - - - - - - -
27/08:30pm 23.1 ESE 22 26 1021.4 - - - - - - - - -
27/08:00pm 23.3 ESE 23 25 1021.3 - - - - - - - - -
27/07:30pm 23.0 ESE 23 25 1020.9 - - - - - - - - -
27/07:00pm 23.1 ESE 23 25 1020.7 - - - - - - - - -
27/06:30pm 23.1 ESE 22 25 1020.4 - - - - - - - - -
27/06:00pm 23.4 ESE 23 27 1020.4 - - - - - - - - -
27/05:30pm 23.1 ESE 22 25 1019.9 - - - - - - - - -
27/05:00pm 23.2 E 22 27 1019.7 - - - - - - - - -
27/04:30pm 23.0 ESE 23 25 1019.5 - - - - - - - - -
27/04:00pm 23.2 ESE 24 26 1019.3 - - - - - - - - -
27/03:30pm 23.3 ESE 23 25 1019.0 - - - - - - - - -
27/03:00pm 23.2 ESE 24 25 1018.9 - - - - - - - - -
27/02:30pm 23.2 ESE 23 25 1019.0 - - - - - - - - -
27/02:00pm 23.1 ESE 24 27 1019.2 - - - - - - - - -
27/01:30pm 23.2 ESE 20 23 1019.5 - - - - - - - - -
27/01:00pm 23.2 ESE 20 23 1019.7 - - - - - - - - -
27/12:30pm 23.1 ESE 21 23 1020.1 - - - - - - - - -
27/12:00pm 23.1 ESE 21 23 1020.4 - - - - - - - - -
27/11:30am 23.0 ESE 21 23 1020.7 - - - - - - - - -
27/11:00am 23.3 ESE 22 24 1020.9 - - - - - - - - -
27/10:30am 23.1 ESE 22 25 1020.8 - - - - - - - - -
27/10:00am 23.0 ESE 21 24 1020.8 - - - - - - - - -
27/09:30am 23.3 SE 20 24 1021.0 - - - - - - - - -
27/09:00am 23.0 SE 20 23 1020.9 - - - - - - - - -
27/08:30am 23.0 SE 21 25 1020.8 - - - - - - - - -
27/08:00am 23.0 ESE 22 24 1020.5 - - - - - - - - -
27/07:30am 23.1 SE 22 24 1020.0 - - - - - - - - -
27/07:00am 22.8 SE 21 23 1019.8 - - - - - - - - -
27/06:30am 22.7 SE 21 23 1019.4 - - - - - - - - -
27/06:00am 22.9 SE 21 23 1019.1 - - - - - - - - -
27/05:30am 22.9 SE 21 24 1019.1 - - - - - - - - -
27/05:00am 22.8 SE 20 23 1019.1 - - - - - - - - -
27/04:30am 22.6 SSE 20 22 1019.0 - - - - - - - - -
27/04:00am 22.7 SE 19 23 1019.0 - - - - - - - - -
27/03:30am 23.0 SSE 17 19 1019.2 - - - - - - - - -
27/03:00am 22.5 SE 17 21 1019.2 - - - - - - - - -
27/02:30am 22.8 SE 18 20 1019.3 - - - - - - - - -
27/02:00am 22.7 SE 17 19 1019.6 - - - - - - - - -
27/01:30am 22.6 SE 19 21 1019.5 - - - - - - - - -
27/01:00am 22.9 SE 17 19 1019.6 - - - - - - - - -
27/12:30am 23.3 SE 16 19 1020.0 - - - - - - - - -
27/12:00am 23.0 SE 17 19 1020.0 - - - - - - - - -
 
Date/Time
EST
Temp
°C
Wind Pressure Rain since
9am
mm
Weather Cloud Vis
km
Sea
Height
m
Swell
Dir  Spd
kts
Gust
kts
hPa Trend Height
m
Period
s
Dir
26/11:30pm 22.7 ESE 16 18 1020.0 - - - - - - - - -
26/11:00pm 22.8 SE 17 18 1020.2 - - - - - - - - -
26/10:30pm 23.1 SE 16 19 1020.5 - - - - - - - - -
26/10:00pm 23.0 ESE 16 19 1020.5 - - - - - - - - -
26/09:30pm 22.9 ESE 17 20 1020.2 - - - - - - - - -
26/09:00pm 23.0 ESE 16 19 1020.1 - - - - - - - - -
26/08:30pm 23.1 SE 17 19 1020.0 - - - - - - - - -
26/08:00pm 22.9 SE 16 19 1019.7 - - - - - - - - -
26/07:30pm 23.3 ESE 15 17 1019.6 - - - - - - - - -
26/07:00pm 23.1 SE 15 17 1019.5 - - - - - - - - -
26/06:30pm 23.0 SE 13 16 1019.3 - - - - - - - - -
26/06:00pm 23.3 SE 13 17 1018.9 - - - - - - - - -
26/05:30pm 22.9 SE 14 16 1018.4 - - - - - - - - -
26/05:00pm 23.0 SE 14 16 1018.3 - - - - - - - - -
26/04:30pm 23.3 ESE 13 16 1018.1 - - - - - - - - -
26/04:00pm 23.0 ESE 13 15 1018.0 - - - - - - - - -
26/03:30pm 23.3 SE 14 16 1017.9 - - - - - - - - -
26/03:00pm 23.2 SE 14 17 1017.7 - - - - - - - - -
26/02:30pm 23.2 SE 14 16 1017.8 - - - - - - - - -
26/02:00pm 23.1 SE 13 16 1017.8 - - - - - - - - -
26/01:30pm 23.0 SE 16 17 1017.9 - - - - - - - - -
26/01:00pm 23.4 ESE 16 18 1018.0 - - - - - - - - -
26/12:30pm 23.3 E 16 19 1018.4 - - - - - - - - -
26/12:00pm 23.3 ESE 15 18 1018.5 - - - - - - - - -
26/11:30am 23.3 ESE 15 17 1018.8 - - - - - - - - -
26/11:00am 23.0 ESE 15 18 1019.1 - - - - - - - - -
26/10:30am 23.1 ESE 14 17 1019.4 - - - - - - - - -
26/10:00am 22.9 ESE 15 20 1019.6 - - - - - - - - -
26/09:30am 22.9 E 14 17 1019.7 - - - - - - - - -
26/09:00am 23.0 ESE 15 17 1019.5 - - - - - - - - -
26/08:30am 22.9 SE 16 19 1019.2 - - - - - - - - -
26/08:00am 22.8 SE 15 19 1019.1 - - - - - - - - -
26/07:30am 22.9 ESE 16 18 1018.5 - - - - - - - - -
26/07:00am 22.7 ESE 14 17 1018.3 - - - - - - - - -
26/06:30am 22.8 ESE 15 18 1017.7 - - - - - - - - -
26/06:00am 22.9 ESE 15 16 1017.7 - - - - - - - - -
26/05:30am 22.7 SSE 11 13 1017.6 - - - - - - - - -
26/05:00am 22.6 SE 13 15 1017.3 - - - - - - - - -
26/04:30am 22.7 SSE 12 15 1017.2 - - - - - - - - -
26/04:00am 22.7 SE 13 16 1017.1 - - - - - - - - -
26/03:30am 22.6 SSE 13 15 1017.0 - - - - - - - - -
26/03:00am 22.6 SSE 12 15 1017.1 - - - - - - - - -
26/02:30am 22.6 SE 13 16 1017.3 - - - - - - - - -
26/02:00am 22.8 SE 12 15 1017.4 - - - - - - - - -

Other Formats:

Comma delimited format used in spreadsheet applications
http://www.bom.gov.au/fwo/IDQ60701/IDQ60701.94393.axf

JavaScript Object Notation format (JSON) in row-major order
http://www.bom.gov.au/fwo/IDQ60701/IDQ60701.94393.json